Oakridge, Oregon
Current Conditions -  °F | °C
As of 7:54 AM on Saturday 25 Oct 2014 (Local Time) from KEUG Reporting Station
Scattered Clouds Scattered Clouds  
Wind Chill: 52°   Ceiling: Unl
Heat Index: 52°   Visibility: 10mi
Dew Point: 49°   Wind: 7mph
Humidity: 89%   Direction: 150°SSE
Pressure: 29.44"   Gusts: NA
Location:  43.75°N, 122.46°W
Report Text: KEUG 251454Z 15006KT 10SM FEW020 FEW055 SCT090 SCT180 11/09 A2944 RMK AO2 SLP970 60006 T01110094 58047
Loading
Personal Weather Stations






























Interactive Weather Map
Tropical Storm Tracking
New forecast layout! Learn more

10-Day Weather Forecast

Advertisements
Track Severe Weather on mobile